sensor_id;sensor_type;location;lat;lon;timestamp;pressure;altitude;pressure_sealevel;temperature;humidity
4123;BME280;2075;51.062;6.920;2022-10-31T00:00:14;-9396.91;;;-144.48;100.00
4123;BME280;2075;51.062;6.920;2022-10-31T00:03:00;-9649.03;;;-144.48;100.00
4123;BME280;2075;51.062;6.920;2022-10-31T00:05:47;-10153.28;;;-144.48;100.00
4123;BME280;2075;51.062;6.920;2022-10-31T00:08:32;-10153.28;;;-144.48;100.00
4123;BME280;2075;51.062;6.920;2022-10-31T00:11:18;-10405.38;;;-144.48;100.00
4123;BME280;2075;51.062;6.920;2022-10-31T00:14:05;-10909.50;;;-144.48;100.00
4123;BME280;2075;51.062;6.920;2022-10-31T00:16:50;-10909.50;;;-144.48;100.00
4123;BME280;2075;51.062;6.920;2022-10-31T00:19:35;-11413.53;;;-144.48;100.00
4123;BME280;2075;51.062;6.920;2022-10-31T00:22:21;-11413.53;;;-144.48;100.00
4123;BME280;2075;51.062;6.920;2022-10-31T00:25:06;-11161.53;;;-144.48;100.00
4123;BME280;2075;51.062;6.920;2022-10-31T00:27:52;-11413.53;;;-144.48;100.00
4123;BME280;2075;51.062;6.920;2022-10-31T00:30:39;-11665.53;;;-144.48;100.00
4123;BME280;2075;51.062;6.920;2022-10-31T00:33:24;-11667.00;;;-144.48;100.00
4123;BME280;2075;51.062;6.920;2022-10-31T00:36:12;-11667.00;;;-144.48;100.00
4123;BME280;2075;51.062;6.920;2022-10-31T00:38:58;-11667.00;;;-144.48;100.00
4123;BME280;2075;51.062;6.920;2022-10-31T00:41:45;-11667.00;;;-144.48;100.00
4123;BME280;2075;51.062;6.920;2022-10-31T00:44:30;-11667.00;;;-144.48;100.00
4123;BME280;2075;51.062;6.920;2022-10-31T00:47:17;-11667.00;;;-144.48;100.00
4123;BME280;2075;51.062;6.920;2022-10-31T00:50:03;-11665.53;;;-144.48;100.00
4123;BME280;2075;51.062;6.920;2022-10-31T00:52:49;-11665.53;;;-144.48;100.00
4123;BME280;2075;51.062;6.920;2022-10-31T00:55:34;-11413.53;;;-144.48;100.00
4123;BME280;2075;51.062;6.920;2022-10-31T00:58:20;-11161.53;;;-144.48;100.00
4123;BME280;2075;51.062;6.920;2022-10-31T01:01:05;-11161.53;;;-144.48;100.00
4123;BME280;2075;51.062;6.920;2022-10-31T01:03:54;-10657.44;;;-144.48;100.00
4123;BME280;2075;51.062;6.920;2022-10-31T01:06:39;-10153.28;;;-144.48;100.00
4123;BME280;2075;51.062;6.920;2022-10-31T01:09:24;-9396.91;;;-144.48;100.00
4123;BME280;2075;51.062;6.920;2022-10-31T01:12:10;-9396.91;;;-144.48;100.00
4123;BME280;2075;51.062;6.920;2022-10-31T01:14:57;-10153.28;;;-144.48;100.00
4123;BME280;2075;51.062;6.920;2022-10-31T01:17:42;-10405.38;;;-144.48;100.00
4123;BME280;2075;51.062;6.920;2022-10-31T01:20:30;-9901.19;;;-144.48;100.00
4123;BME280;2075;51.062;6.920;2022-10-31T01:23:15;-9901.19;;;-144.48;100.00
4123;BME280;2075;51.062;6.920;2022-10-31T01:26:04;-10153.28;;;-144.48;100.00
4123;BME280;2075;51.062;6.920;2022-10-31T01:28:52;-9901.19;;;-144.48;100.00
4123;BME280;2075;51.062;6.920;2022-10-31T01:31:38;-10405.38;;;-144.48;100.00
4123;BME280;2075;51.062;6.920;2022-10-31T01:34:24;-10657.44;;;-144.48;100.00
4123;BME280;2075;51.062;6.920;2022-10-31T01:37:11;-11413.53;;;-144.48;100.00
4123;BME280;2075;51.062;6.920;2022-10-31T01:39:56;-11413.53;;;-144.48;100.00
4123;BME280;2075;51.062;6.920;2022-10-31T01:42:42;-11665.53;;;-144.48;100.00
4123;BME280;2075;51.062;6.920;2022-10-31T01:45:27;-11665.53;;;-144.48;100.00
4123;BME280;2075;51.062;6.920;2022-10-31T01:48:14;-11665.53;;;-144.48;100.00
4123;BME280;2075;51.062;6.920;2022-10-31T01:51:01;-11665.53;;;-144.48;100.00
4123;BME280;2075;51.062;6.920;2022-10-31T01:53:52;-11665.53;;;-144.48;100.00
4123;BME280;2075;51.062;6.920;2022-10-31T01:56:42;-11665.53;;;-144.48;100.00
4123;BME280;2075;51.062;6.920;2022-10-31T01:59:33;-11667.00;;;-144.48;100.00
4123;BME280;2075;51.062;6.920;2022-10-31T02:02:20;-11667.00;;;-144.48;100.00
4123;BME280;2075;51.062;6.920;2022-10-31T02:05:09;-11667.00;;;-144.48;100.00
4123;BME280;2075;51.062;6.920;2022-10-31T02:07:59;-11667.00;;;-144.48;100.00
4123;BME280;2075;51.062;6.920;2022-10-31T02:10:49;-11667.00;;;-144.48;100.00
4123;BME280;2075;51.062;6.920;2022-10-31T02:13:35;-11667.00;;;-144.48;100.00
4123;BME280;2075;51.062;6.920;2022-10-31T02:16:24;-11667.00;;;-144.48;100.00
4123;BME280;2075;51.062;6.920;2022-10-31T02:19:14;-11667.00;;;-144.48;100.00
4123;BME280;2075;51.062;6.920;2022-10-31T02:22:09;-11667.00;;;-144.48;100.00
4123;BME280;2075;51.062;6.920;2022-10-31T02:25:12;-11667.00;;;-144.48;100.00
4123;BME280;2075;51.062;6.920;2022-10-31T02:31:11;-11667.00;;;-144.48;100.00
4123;BME280;2075;51.062;6.920;2022-10-31T02:34:06;-11667.00;;;-144.48;100.00
4123;BME280;2075;51.062;6.920;2022-10-31T02:36:58;-11667.00;;;-144.48;100.00
4123;BME280;2075;51.062;6.920;2022-10-31T02:39:52;-11667.00;;;-144.48;100.00
4123;BME280;2075;51.062;6.920;2022-10-31T02:42:58;-11667.00;;;-144.48;100.00
4123;BME280;2075;51.062;6.920;2022-10-31T02:45:48;-11667.00;;;-144.48;100.00
4123;BME280;2075;51.062;6.920;2022-10-31T02:48:42;-11667.00;;;-144.48;100.00
4123;BME280;2075;51.062;6.920;2022-10-31T02:51:29;-11667.00;;;-144.48;100.00
4123;BME280;2075;51.062;6.920;2022-10-31T02:54:19;-11667.00;;;-144.48;100.00
4123;BME280;2075;51.062;6.920;2022-10-31T02:57:10;-11667.00;;;-144.48;100.00
4123;BME280;2075;51.062;6.920;2022-10-31T02:59:58;-11667.00;;;-144.48;100.00
4123;BME280;2075;51.062;6.920;2022-10-31T03:02:56;-11667.00;;;-144.48;100.00
4123;BME280;2075;51.062;6.920;2022-10-31T03:05:54;-11667.00;;;-144.48;100.00
4123;BME280;2075;51.062;6.920;2022-10-31T03:08:44;-11667.00;;;-144.48;100.00
4123;BME280;2075;51.062;6.920;2022-10-31T03:11:41;-11667.00;;;-144.48;100.00
4123;BME280;2075;51.062;6.920;2022-10-31T03:14:33;-11667.00;;;-144.48;100.00
4123;BME280;2075;51.062;6.920;2022-10-31T03:17:26;-11667.00;;;-144.48;100.00
4123;BME280;2075;51.062;6.920;2022-10-31T03:20:14;-11667.00;;;-144.48;100.00
4123;BME280;2075;51.062;6.920;2022-10-31T03:23:03;-11667.00;;;-144.48;100.00
4123;BME280;2075;51.062;6.920;2022-10-31T03:25:51;-11667.00;;;-144.48;100.00
4123;BME280;2075;51.062;6.920;2022-10-31T03:28:46;-11667.00;;;-144.48;100.00
4123;BME280;2075;51.062;6.920;2022-10-31T03:31:33;-11667.00;;;-144.48;100.00
4123;BME280;2075;51.062;6.920;2022-10-31T03:34:23;-11667.00;;;-144.48;100.00
4123;BME280;2075;51.062;6.920;2022-10-31T03:37:11;-11667.00;;;-144.48;100.00
4123;BME280;2075;51.062;6.920;2022-10-31T03:40:01;-11667.00;;;-144.48;100.00
4123;BME280;2075;51.062;6.920;2022-10-31T03:42:55;-11667.00;;;-144.48;100.00
4123;BME280;2075;51.062;6.920;2022-10-31T03:45:45;-11667.00;;;-144.48;100.00
4123;BME280;2075;51.062;6.920;2022-10-31T03:48:30;-11667.00;;;-144.48;100.00
4123;BME280;2075;51.062;6.920;2022-10-31T03:51:22;-11667.00;;;-144.48;100.00
4123;BME280;2075;51.062;6.920;2022-10-31T03:54:13;-11665.53;;;-144.48;100.00
4123;BME280;2075;51.062;6.920;2022-10-31T03:57:06;-11665.53;;;-144.48;100.00
4123;BME280;2075;51.062;6.920;2022-10-31T03:59:55;-11665.53;;;-144.48;100.00
4123;BME280;2075;51.062;6.920;2022-10-31T04:02:46;-11667.00;;;-144.48;100.00
4123;BME280;2075;51.062;6.920;2022-10-31T04:05:35;-11665.53;;;-144.48;100.00
4123;BME280;2075;51.062;6.920;2022-10-31T04:08:24;-11667.00;;;-144.48;100.00
4123;BME280;2075;51.062;6.920;2022-10-31T04:11:13;-11667.00;;;-144.48;100.00
4123;BME280;2075;51.062;6.920;2022-10-31T04:14:03;-11667.00;;;-144.48;100.00
4123;BME280;2075;51.062;6.920;2022-10-31T04:16:53;-11667.00;;;-144.48;100.00
4123;BME280;2075;51.062;6.920;2022-10-31T04:19:45;-11667.00;;;-144.48;100.00
4123;BME280;2075;51.062;6.920;2022-10-31T04:22:31;-11667.00;;;-144.48;100.00
4123;BME280;2075;51.062;6.920;2022-10-31T04:25:17;-11667.00;;;-144.48;100.00
4123;BME280;2075;51.062;6.920;2022-10-31T04:28:03;-11667.00;;;-144.48;100.00
4123;BME280;2075;51.062;6.920;2022-10-31T04:30:50;-11667.00;;;-144.48;100.00
4123;BME280;2075;51.062;6.920;2022-10-31T04:33:35;-11667.00;;;-144.48;100.00
4123;BME280;2075;51.062;6.920;2022-10-31T04:36:20;-11667.00;;;-144.48;100.00
4123;BME280;2075;51.062;6.920;2022-10-31T04:39:06;-11667.00;;;-144.48;100.00
4123;BME280;2075;51.062;6.920;2022-10-31T04:41:59;-11667.00;;;-144.48;100.00
4123;BME280;2075;51.062;6.920;2022-10-31T04:44:44;-11667.00;;;-144.48;100.00
4123;BME280;2075;51.062;6.920;2022-10-31T04:47:32;-11667.00;;;-144.48;100.00
4123;BME280;2075;51.062;6.920;2022-10-31T04:50:18;-11667.00;;;-144.48;100.00
4123;BME280;2075;51.062;6.920;2022-10-31T04:53:03;-11667.00;;;-144.48;100.00
4123;BME280;2075;51.062;6.920;2022-10-31T04:55:57;-11667.00;;;-144.48;100.00
4123;BME280;2075;51.062;6.920;2022-10-31T04:58:50;-11667.00;;;-144.48;100.00
4123;BME280;2075;51.062;6.920;2022-10-31T05:01:36;-11667.00;;;-144.48;100.00
4123;BME280;2075;51.062;6.920;2022-10-31T05:04:23;-11667.00;;;-144.48;100.00
4123;BME280;2075;51.062;6.920;2022-10-31T05:07:08;-11667.00;;;-144.48;100.00
4123;BME280;2075;51.062;6.920;2022-10-31T05:09:53;-11665.53;;;-144.48;100.00
4123;BME280;2075;51.062;6.920;2022-10-31T05:12:45;-11665.53;;;-144.48;100.00
4123;BME280;2075;51.062;6.920;2022-10-31T05:15:50;-11665.53;;;-144.48;100.00
4123;BME280;2075;51.062;6.920;2022-10-31T05:19:05;-11413.53;;;-144.48;100.00
4123;BME280;2075;51.062;6.920;2022-10-31T05:22:14;-11413.53;;;-144.48;100.00
4123;BME280;2075;51.062;6.920;2022-10-31T05:25:00;-11665.53;;;-144.48;100.00
4123;BME280;2075;51.062;6.920;2022-10-31T05:27:47;-11667.00;;;-144.48;100.00
4123;BME280;2075;51.062;6.920;2022-10-31T05:30:34;-11667.00;;;-144.48;100.00
4123;BME280;2075;51.062;6.920;2022-10-31T05:33:21;-11667.00;;;-144.48;100.00
4123;BME280;2075;51.062;6.920;2022-10-31T05:36:25;-11667.00;;;-144.48;100.00
4123;BME280;2075;51.062;6.920;2022-10-31T05:39:16;-11667.00;;;-144.48;100.00
4123;BME280;2075;51.062;6.920;2022-10-31T05:42:05;-11667.00;;;-144.48;100.00
4123;BME280;2075;51.062;6.920;2022-10-31T05:44:51;-11667.00;;;-144.48;100.00
4123;BME280;2075;51.062;6.920;2022-10-31T05:47:50;-11667.00;;;-144.48;100.00
4123;BME280;2075;51.062;6.920;2022-10-31T05:51:02;-11667.00;;;-144.48;100.00
4123;BME280;2075;51.062;6.920;2022-10-31T05:53:47;-11667.00;;;-144.48;100.00
4123;BME280;2075;51.062;6.920;2022-10-31T05:56:35;-11667.00;;;-144.48;100.00
4123;BME280;2075;51.062;6.920;2022-10-31T05:59:20;-11667.00;;;-144.48;100.00
4123;BME280;2075;51.062;6.920;2022-10-31T06:02:06;-11667.00;;;-144.48;100.00
4123;BME280;2075;51.062;6.920;2022-10-31T06:05:10;-11667.00;;;-144.48;100.00
4123;BME280;2075;51.062;6.920;2022-10-31T06:07:56;-11667.00;;;-144.48;100.00
4123;BME280;2075;51.062;6.920;2022-10-31T06:10:42;-11667.00;;;-144.48;100.00
4123;BME280;2075;51.062;6.920;2022-10-31T06:13:30;-11667.00;;;-144.48;100.00
4123;BME280;2075;51.062;6.920;2022-10-31T06:16:30;-11667.00;;;-144.48;100.00
4123;BME280;2075;51.062;6.920;2022-10-31T06:19:23;-11667.00;;;-144.48;100.00
4123;BME280;2075;51.062;6.920;2022-10-31T06:22:08;-11667.00;;;-144.48;100.00
4123;BME280;2075;51.062;6.920;2022-10-31T06:24:55;-11667.00;;;-144.48;100.00
4123;BME280;2075;51.062;6.920;2022-10-31T06:27:50;-11667.00;;;-144.48;100.00
4123;BME280;2075;51.062;6.920;2022-10-31T06:30:38;-11667.00;;;-144.48;100.00
4123;BME280;2075;51.062;6.920;2022-10-31T06:33:24;-11667.00;;;-144.48;100.00
4123;BME280;2075;51.062;6.920;2022-10-31T06:36:14;-11667.00;;;-144.48;100.00
4123;BME280;2075;51.062;6.920;2022-10-31T06:39:00;-11667.00;;;-144.48;100.00
4123;BME280;2075;51.062;6.920;2022-10-31T06:41:47;-11667.00;;;-144.48;100.00
4123;BME280;2075;51.062;6.920;2022-10-31T06:44:33;-11667.00;;;-144.48;100.00
4123;BME280;2075;51.062;6.920;2022-10-31T06:47:56;-11667.00;;;-144.48;100.00
4123;BME280;2075;51.062;6.920;2022-10-31T06:50:45;-11667.00;;;-144.48;100.00
4123;BME280;2075;51.062;6.920;2022-10-31T06:53:32;-11667.00;;;-144.48;100.00
4123;BME280;2075;51.062;6.920;2022-10-31T06:56:18;-11665.53;;;-144.48;100.00
4123;BME280;2075;51.062;6.920;2022-10-31T06:59:07;-10909.50;;;-144.48;100.00
4123;BME280;2075;51.062;6.920;2022-10-31T07:02:13;-10153.28;;;-144.48;100.00
4123;BME280;2075;51.062;6.920;2022-10-31T07:05:01;-10153.28;;;-144.48;100.00
4123;BME280;2075;51.062;6.920;2022-10-31T07:07:47;-9649.03;;;-144.48;100.00
4123;BME280;2075;51.062;6.920;2022-10-31T07:10:34;-8640.34;;;-144.48;100.00
4123;BME280;2075;51.062;6.920;2022-10-31T07:13:21;-7379.00;;;-144.48;100.00
4123;BME280;2075;51.062;6.920;2022-10-31T07:16:12;-6117.19;;;-144.48;100.00
4123;BME280;2075;51.062;6.920;2022-10-31T07:18:58;-5864.78;;;-144.48;100.00
4123;BME280;2075;51.062;6.920;2022-10-31T07:21:45;-6874.34;;;-144.48;100.00
4123;BME280;2075;51.062;6.920;2022-10-31T07:24:33;-7126.69;;;-144.48;100.00
4123;BME280;2075;51.062;6.920;2022-10-31T07:27:37;-6117.19;;;-144.48;100.00
4123;BME280;2075;51.062;6.920;2022-10-31T07:30:26;-5612.34;;;-144.48;100.00
4123;BME280;2075;51.062;6.920;2022-10-31T07:33:13;-4097.28;;;-144.48;100.00
4123;BME280;2075;51.062;6.920;2022-10-31T07:36:22;-1317.84;;;-144.48;100.00
4123;BME280;2075;51.062;6.920;2022-10-31T07:39:11;-306.56;;;-144.48;100.00
4123;BME280;2075;51.062;6.920;2022-10-31T07:41:57;452.09;;;-144.48;100.00
4123;BME280;2075;51.062;6.920;2022-10-31T07:44:43;1969.97;;;-144.48;100.00
4123;BME280;2075;51.062;6.920;2022-10-31T07:48:07;5514.38;;;-144.48;100.00
4123;BME280;2075;51.062;6.920;2022-10-31T07:51:11;9823.44;;;-144.48;100.00
4123;BME280;2075;51.062;6.920;2022-10-31T07:54:18;12614.66;;;-144.48;100.00
4123;BME280;2075;51.062;6.920;2022-10-31T07:57:05;13630.22;;;-144.48;100.00
4123;BME280;2075;51.062;6.920;2022-10-31T07:59:50;14138.13;;;-144.48;100.00
4123;BME280;2075;51.062;6.920;2022-10-31T08:02:36;15154.19;;;-144.48;100.00
4123;BME280;2075;51.062;6.920;2022-10-31T08:05:42;18712.78;;;-144.48;100.00
4123;BME280;2075;51.062;6.920;2022-10-31T08:09:02;20493.53;;;-144.48;100.00
4123;BME280;2075;51.062;6.920;2022-10-31T08:11:52;25076.94;;;-144.48;100.00
4123;BME280;2075;51.062;6.920;2022-10-31T08:14:38;28646.22;;;-144.48;100.00
4123;BME280;2075;51.062;6.920;2022-10-31T08:17:23;34007.25;;;-144.48;100.00
4123;BME280;2075;51.062;6.920;2022-10-31T08:20:13;34007.25;;;-144.48;100.00
4123;BME280;2075;51.062;6.920;2022-10-31T08:23:04;36307.50;;;-144.48;100.00
4123;BME280;2075;51.062;6.920;2022-10-31T08:25:52;36307.50;;;-144.48;100.00
4123;BME280;2075;51.062;6.920;2022-10-31T08:28:39;36307.50;;;-144.48;100.00
4123;BME280;2075;51.062;6.920;2022-10-31T08:31:26;35540.56;;;-144.48;100.00
4123;BME280;2075;51.062;6.920;2022-10-31T08:34:31;38353.47;;;-144.48;100.00
4123;BME280;2075;51.062;6.920;2022-10-31T08:37:37;39888.75;;;-144.48;100.00
4123;BME280;2075;51.062;6.920;2022-10-31T08:40:24;41936.91;;;-144.48;100.00
4123;BME280;2075;51.062;6.920;2022-10-31T08:43:12;45780.56;;;-144.48;100.00
4123;BME280;2075;51.062;6.920;2022-10-31T08:45:59;46806.28;;;-144.48;100.00
4123;BME280;2075;51.062;6.920;2022-10-31T08:48:47;49885.31;;;-144.48;100.00
4123;BME280;2075;51.062;6.920;2022-10-31T08:51:34;55023.25;;;-144.48;100.00
4123;BME280;2075;51.062;6.920;2022-10-31T08:54:20;57337.88;;;-144.48;100.00
4123;BME280;2075;51.062;6.920;2022-10-31T08:57:12;59396.66;;;-144.48;100.00
4123;BME280;2075;51.062;6.920;2022-10-31T09:00:01;64549.03;;;-144.48;100.00
4123;BME280;2075;51.062;6.920;2022-10-31T09:03:12;67386.16;;;-144.48;100.00
4123;BME280;2075;51.062;6.920;2022-10-31T09:06:02;81757.00;;;-144.48;100.00
4123;BME280;2075;51.062;6.920;2022-10-31T09:08:49;85143.34;;;-144.48;94.02
4123;BME280;2075;51.062;6.920;2022-10-31T09:11:35;85516.19;;;-144.48;94.10
4123;BME280;2075;51.062;6.920;2022-10-31T09:14:23;89766.41;;;-144.48;92.27
4123;BME280;2075;51.062;6.920;2022-10-31T09:17:28;88656.72;;;-144.48;93.22
4123;BME280;2075;51.062;6.920;2022-10-31T09:20:36;89125.28;;;-144.48;93.01
4123;BME280;2075;51.062;6.920;2022-10-31T09:23:23;88685.09;;;-144.48;93.22
4123;BME280;2075;51.062;6.920;2022-10-31T09:26:08;89669.00;;;-144.48;92.66
4123;BME280;2075;51.062;6.920;2022-10-31T09:28:55;90103.25;;;-144.48;92.60
4123;BME280;2075;51.062;6.920;2022-10-31T09:31:42;88265.25;;;-144.48;93.47
4123;BME280;2075;51.062;6.920;2022-10-31T09:34:41;89007.63;;;-144.48;93.04
4123;BME280;2075;51.062;6.920;2022-10-31T09:37:29;91113.94;;;-144.48;91.41
4123;BME280;2075;51.062;6.920;2022-10-31T09:40:15;91972.66;;;-144.48;90.44
4123;BME280;2075;51.062;6.920;2022-10-31T09:43:07;92425.44;;;-144.48;89.60
4123;BME280;2075;51.062;6.920;2022-10-31T09:46:01;92453.88;;;-144.48;89.76
4123;BME280;2075;51.062;6.920;2022-10-31T09:49:27;92636.63;;;-144.48;89.44
4123;BME280;2075;51.062;6.920;2022-10-31T09:52:21;92685.38;;;-144.48;88.97
4123;BME280;2075;51.062;6.920;2022-10-31T09:55:17;92738.16;;;-144.48;88.65
4123;BME280;2075;51.062;6.920;2022-10-31T09:58:04;92979.84;;;-144.48;88.26
4123;BME280;2075;51.062;6.920;2022-10-31T10:00:50;92839.72;;;-144.48;89.01
4123;BME280;2075;51.062;6.920;2022-10-31T10:03:42;92953.44;;;-144.48;88.36
4123;BME280;2075;51.062;6.920;2022-10-31T10:06:52;92975.78;;;-144.48;88.14
4123;BME280;2075;51.062;6.920;2022-10-31T10:10:23;92833.63;;;-144.48;88.97
4123;BME280;2075;51.062;6.920;2022-10-31T10:13:51;93048.88;;;-144.48;87.39
4123;BME280;2075;51.062;6.920;2022-10-31T10:17:11;93168.72;;;-144.48;86.22
4123;BME280;2075;51.062;6.920;2022-10-31T10:20:17;93193.09;;;-144.48;86.50
4123;BME280;2075;51.062;6.920;2022-10-31T10:23:22;93195.13;;;-144.48;85.86
4123;BME280;2075;51.062;6.920;2022-10-31T10:26:17;93107.78;;;-144.48;87.02
4123;BME280;2075;51.062;6.920;2022-10-31T10:29:16;93199.19;;;-144.48;86.30
4123;BME280;2075;51.062;6.920;2022-10-31T10:32:17;93205.28;;;-144.48;85.60
4123;BME280;2075;51.062;6.920;2022-10-31T10:35:11;93180.91;;;-144.48;84.90
4123;BME280;2075;51.062;6.920;2022-10-31T10:38:03;93205.28;;;-144.48;82.92
4123;BME280;2075;51.062;6.920;2022-10-31T10:40:54;93256.06;;;-144.48;82.19
4123;BME280;2075;51.062;6.920;2022-10-31T10:43:41;93243.88;;;-144.48;81.34
4123;BME280;2075;51.062;6.920;2022-10-31T10:46:32;93284.50;;;-144.48;79.90
4123;BME280;2075;51.062;6.920;2022-10-31T10:49:40;93321.03;;;-144.48;79.39
4123;BME280;2075;51.062;6.920;2022-10-31T10:52:36;93235.75;;;-144.48;79.69
4123;BME280;2075;51.062;6.920;2022-10-31T10:55:34;93243.88;;;-144.48;79.04
4123;BME280;2075;51.062;6.920;2022-10-31T10:58:21;93219.50;;;-144.48;77.56
4123;BME280;2075;51.062;6.920;2022-10-31T11:01:11;93252.00;;;-144.48;76.37
4123;BME280;2075;51.062;6.920;2022-10-31T11:03:57;92959.53;;;-144.48;75.01
4123;BME280;2075;51.062;6.920;2022-10-31T11:06:43;93262.16;;;-144.48;74.81
4123;BME280;2075;51.062;6.920;2022-10-31T11:09:29;93130.13;;;-144.48;74.06
4123;BME280;2075;51.062;6.920;2022-10-31T11:12:19;93168.72;;;-144.48;72.62
4123;BME280;2075;51.062;6.920;2022-10-31T11:15:17;93201.22;;;-144.48;72.81
4123;BME280;2075;51.062;6.920;2022-10-31T11:18:05;93156.53;;;-144.48;72.99
4123;BME280;2075;51.062;6.920;2022-10-31T11:20:52;93083.41;;;-144.48;72.23
4123;BME280;2075;51.062;6.920;2022-10-31T11:23:37;93077.31;;;-144.48;70.36
4123;BME280;2075;51.062;6.920;2022-10-31T11:26:23;93107.78;;;-144.48;69.75
4123;BME280;2075;51.062;6.920;2022-10-31T11:29:14;93113.88;;;-144.48;69.28
4123;BME280;2075;51.062;6.920;2022-10-31T11:32:00;93103.72;;;-144.48;67.99
4123;BME280;2075;51.062;6.920;2022-10-31T11:34:50;93079.34;;;-144.48;67.60
4123;BME280;2075;51.062;6.920;2022-10-31T11:37:42;93266.22;;;-144.48;65.15
4123;BME280;2075;51.062;6.920;2022-10-31T11:40:29;93089.50;;;-144.48;65.86
4123;BME280;2075;51.062;6.920;2022-10-31T11:43:16;93054.97;;;-144.48;65.46
4123;BME280;2075;51.062;6.920;2022-10-31T11:46:09;93119.97;;;-144.48;65.02
4123;BME280;2075;51.062;6.920;2022-10-31T11:48:55;93109.81;;;-144.48;64.75
4123;BME280;2075;51.062;6.920;2022-10-31T11:51:43;93138.25;;;-144.48;63.49
4123;BME280;2075;51.062;6.920;2022-10-31T11:54:34;93148.41;;;-144.48;64.24
4123;BME280;2075;51.062;6.920;2022-10-31T11:57:25;93164.66;;;-144.48;65.61
4123;BME280;2075;51.062;6.920;2022-10-31T12:00:22;93164.66;;;-144.48;65.92
4123;BME280;2075;51.062;6.920;2022-10-31T12:03:15;93164.66;;;-144.48;65.44
4123;BME280;2075;51.062;6.920;2022-10-31T12:06:13;93099.66;;;-144.48;64.08
4123;BME280;2075;51.062;6.920;2022-10-31T12:09:13;93089.50;;;-144.48;64.51
4123;BME280;2075;51.062;6.920;2022-10-31T12:12:19;93158.56;;;-144.48;64.41
4123;BME280;2075;51.062;6.920;2022-10-31T12:15:31;93225.59;;;-144.48;65.71
4123;BME280;2075;51.062;6.920;2022-10-31T12:18:32;93184.97;;;-144.48;66.34
4123;BME280;2075;51.062;6.920;2022-10-31T12:21:32;93215.44;;;-144.48;66.30
4123;BME280;2075;51.062;6.920;2022-10-31T12:24:32;93174.81;;;-144.48;65.88
4123;BME280;2075;51.062;6.920;2022-10-31T12:27:31;93144.34;;;-144.48;65.63
4123;BME280;2075;51.062;6.920;2022-10-31T12:30:21;93199.19;;;-144.48;66.01
4123;BME280;2075;51.062;6.920;2022-10-31T12:33:23;93189.03;;;-144.48;65.78
4123;BME280;2075;51.062;6.920;2022-10-31T12:36:29;93109.81;;;-144.48;65.53
4123;BME280;2075;51.062;6.920;2022-10-31T12:39:25;93189.03;;;-144.48;64.76
4123;BME280;2075;51.062;6.920;2022-10-31T12:42:24;93249.97;;;-144.48;64.85
4123;BME280;2075;51.062;6.920;2022-10-31T12:45:28;93132.16;;;-144.48;64.56
4123;BME280;2075;51.062;6.920;2022-10-31T12:48:30;93189.03;;;-144.48;64.80
4123;BME280;2075;51.062;6.920;2022-10-31T12:51:22;93201.22;;;-144.48;65.28
4123;BME280;2075;51.062;6.920;2022-10-31T12:54:34;93119.97;;;-144.48;64.89
4123;BME280;2075;51.062;6.920;2022-10-31T12:57:26;93189.03;;;-144.48;65.83
4123;BME280;2075;51.062;6.920;2022-10-31T13:00:14;93227.63;;;-144.48;66.24
4123;BME280;2075;51.062;6.920;2022-10-31T13:03:13;93182.94;;;-144.48;63.96
4123;BME280;2075;51.062;6.920;2022-10-31T13:06:07;93174.81;;;-144.48;63.96
4123;BME280;2075;51.062;6.920;2022-10-31T13:08:55;93176.84;;;-144.48;63.67
4123;BME280;2075;51.062;6.920;2022-10-31T13:11:45;93172.78;;;-144.48;63.19
4123;BME280;2075;51.062;6.920;2022-10-31T13:14:36;93166.69;;;-144.48;62.81
4123;BME280;2075;51.062;6.920;2022-10-31T13:17:30;93111.84;;;-144.48;62.29
4123;BME280;2075;51.062;6.920;2022-10-31T13:20:22;93140.28;;;-144.48;61.99
4123;BME280;2075;51.062;6.920;2022-10-31T13:23:12;93158.56;;;-144.48;61.85
4123;BME280;2075;51.062;6.920;2022-10-31T13:26:08;93215.44;;;-144.48;61.45
4123;BME280;2075;51.062;6.920;2022-10-31T13:29:02;93130.13;;;-144.48;61.85
4123;BME280;2075;51.062;6.920;2022-10-31T13:31:49;93119.97;;;-144.48;61.54
4123;BME280;2075;51.062;6.920;2022-10-31T13:34:36;93128.09;;;-144.48;61.19
4123;BME280;2075;51.062;6.920;2022-10-31T13:37:36;93093.56;;;-144.48;60.33
4123;BME280;2075;51.062;6.920;2022-10-31T13:40:33;93059.03;;;-144.48;59.93
4123;BME280;2075;51.062;6.920;2022-10-31T13:43:31;93048.88;;;-144.48;58.78
4123;BME280;2075;51.062;6.920;2022-10-31T13:46:25;93008.28;;;-144.48;59.39
4123;BME280;2075;51.062;6.920;2022-10-31T13:49:35;93091.53;;;-144.48;60.14
4123;BME280;2075;51.062;6.920;2022-10-31T13:52:24;93130.13;;;-144.48;60.86
4123;BME280;2075;51.062;6.920;2022-10-31T13:55:34;93115.91;;;-144.48;61.12
4123;BME280;2075;51.062;6.920;2022-10-31T13:58:23;93172.78;;;-144.48;61.47
4123;BME280;2075;51.062;6.920;2022-10-31T14:01:16;93197.16;;;-144.48;62.62
4123;BME280;2075;51.062;6.920;2022-10-31T14:04:07;93136.22;;;-144.48;63.30
4123;BME280;2075;51.062;6.920;2022-10-31T14:07:05;93237.78;;;-144.48;64.34
4123;BME280;2075;51.062;6.920;2022-10-31T14:09:55;93211.38;;;-144.48;64.74
4123;BME280;2075;51.062;6.920;2022-10-31T14:12:43;93323.06;;;-144.48;64.78
4123;BME280;2075;51.062;6.920;2022-10-31T14:15:30;93424.63;;;-144.48;65.32
4123;BME280;2075;51.062;6.920;2022-10-31T14:18:22;93203.25;;;-144.48;65.51
4123;BME280;2075;51.062;6.920;2022-10-31T14:21:27;93193.09;;;-144.48;65.35
4123;BME280;2075;51.062;6.920;2022-10-31T14:24:14;93178.88;;;-144.48;63.99
4123;BME280;2075;51.062;6.920;2022-10-31T14:27:03;93193.09;;;-144.48;64.26
4123;BME280;2075;51.062;6.920;2022-10-31T14:29:49;93213.41;;;-144.48;64.41
4123;BME280;2075;51.062;6.920;2022-10-31T14:32:36;93189.03;;;-144.48;64.74
4123;BME280;2075;51.062;6.920;2022-10-31T14:35:26;93205.28;;;-144.48;64.28
4123;BME280;2075;51.062;6.920;2022-10-31T14:38:27;93241.84;;;-144.48;65.31
4123;BME280;2075;51.062;6.920;2022-10-31T14:41:36;93211.38;;;-144.48;65.33
4123;BME280;2075;51.062;6.920;2022-10-31T14:44:52;93182.94;;;-144.48;64.75
4123;BME280;2075;51.062;6.920;2022-10-31T14:47:47;93164.66;;;-144.48;65.32
4123;BME280;2075;51.062;6.920;2022-10-31T14:50:45;93184.97;;;-144.48;65.52
4123;BME280;2075;51.062;6.920;2022-10-31T14:53:35;93247.94;;;-144.48;65.89
4123;BME280;2075;51.062;6.920;2022-10-31T14:56:24;93243.88;;;-144.48;65.98
4123;BME280;2075;51.062;6.920;2022-10-31T14:59:14;93207.31;;;-144.48;65.88
4123;BME280;2075;51.062;6.920;2022-10-31T15:02:09;93270.25;;;-144.48;66.82